createdAt,value
2023-04-09T00:01:36.976Z,32.88
2023-04-09T00:04:04.169Z,28.42
2023-04-09T00:06:31.334Z,26.30
2023-04-09T00:08:58.378Z,28.17
2023-04-09T00:11:25.697Z,27.70
2023-04-09T00:13:52.723Z,25.33
2023-04-09T00:16:19.806Z,29.08
2023-04-09T00:18:47.248Z,26.38
2023-04-09T00:21:16.129Z,30.27
2023-04-09T00:23:43.450Z,24.70
2023-04-09T00:26:10.513Z,26.48
2023-04-09T00:28:37.572Z,31.70
2023-04-09T00:31:04.631Z,29.92
2023-04-09T00:33:31.741Z,25.63
2023-04-09T00:35:58.826Z,25.00
2023-04-09T00:38:25.931Z,23.25
2023-04-09T00:40:52.975Z,22.35
2023-04-09T00:43:20.557Z,23.40
2023-04-09T00:45:47.698Z,21.05
2023-04-09T00:48:14.783Z,24.20
2023-04-09T00:50:42.503Z,22.13
2023-04-09T00:53:09.748Z,25.10
2023-04-09T00:55:36.887Z,25.80
2023-04-09T00:58:03.929Z,22.60
2023-04-09T01:00:31.061Z,23.90
2023-04-09T01:02:58.168Z,25.42
2023-04-09T01:05:45.771Z,30.08
2023-04-09T01:08:31.600Z,27.27
2023-04-09T01:11:15.829Z,33.05
2023-04-09T01:13:43.505Z,23.63
2023-04-09T01:16:11.045Z,30.20
2023-04-09T01:18:44.882Z,25.77
2023-04-09T01:21:16.092Z,26.33
2023-04-09T01:23:46.813Z,26.67
2023-04-09T01:26:32.187Z,27.27
2023-04-09T01:28:59.191Z,26.80
2023-04-09T01:31:27.909Z,30.10
2023-04-09T01:33:54.993Z,22.67
2023-04-09T01:36:22.044Z,24.52
2023-04-09T01:38:51.183Z,23.92
2023-04-09T01:41:19.058Z,29.83
2023-04-09T01:43:46.188Z,26.23
2023-04-09T01:46:13.281Z,23.35
2023-04-09T01:48:40.530Z,28.88
2023-04-09T01:51:07.589Z,31.23
2023-04-09T01:53:34.679Z,29.63
2023-04-09T01:56:01.977Z,25.67
2023-04-09T01:58:29.062Z,25.65
2023-04-09T02:01:13.734Z,25.67
2023-04-09T02:03:42.016Z,24.92
2023-04-09T02:06:32.520Z,25.58
2023-04-09T02:09:00.674Z,29.00
2023-04-09T02:11:27.783Z,28.92
2023-04-09T02:13:54.776Z,25.58
2023-04-09T02:16:21.931Z,26.65
2023-04-09T02:18:49.036Z,27.08
2023-04-09T02:21:16.054Z,23.58
2023-04-09T02:23:43.084Z,22.75
2023-04-09T02:26:10.099Z,24.35
2023-04-09T02:28:37.189Z,25.50
2023-04-09T02:31:04.227Z,23.13
2023-04-09T02:33:31.234Z,29.52
2023-04-09T02:35:58.331Z,30.73
2023-04-09T02:38:25.574Z,23.35
2023-04-09T02:40:52.553Z,23.25
2023-04-09T02:43:19.538Z,25.63
2023-04-09T02:45:46.587Z,27.55
2023-04-09T02:48:13.615Z,24.40
2023-04-09T02:50:40.774Z,21.60
2023-04-09T02:53:07.824Z,25.45
2023-04-09T02:55:34.872Z,25.58
2023-04-09T02:58:01.906Z,21.33
2023-04-09T03:00:28.936Z,27.80
2023-04-09T03:02:56.317Z,25.08
2023-04-09T03:05:23.432Z,23.48
2023-04-09T03:07:50.509Z,26.25
2023-04-09T03:10:17.542Z,28.70
2023-04-09T03:12:44.703Z,30.55
2023-04-09T03:15:11.857Z,29.67
2023-04-09T03:17:39.421Z,25.15
2023-04-09T03:20:09.570Z,29.42
2023-04-09T03:22:39.749Z,26.63
2023-04-09T03:25:06.980Z,24.73
2023-04-09T03:27:34.032Z,30.38
2023-04-09T03:30:01.139Z,29.60
2023-04-09T03:32:28.205Z,26.65
2023-04-09T03:34:55.304Z,26.70
2023-04-09T03:37:22.373Z,32.03
2023-04-09T03:39:49.342Z,27.92
2023-04-09T03:42:16.324Z,29.85
2023-04-09T03:44:43.315Z,29.48
2023-04-09T03:47:10.499Z,27.02
2023-04-09T03:49:37.713Z,25.17
2023-04-09T03:52:04.803Z,24.80
2023-04-09T03:54:31.838Z,25.80
2023-04-09T03:56:58.877Z,25.90
2023-04-09T03:59:26.197Z,29.77
2023-04-09T04:01:53.236Z,28.05
2023-04-09T04:04:23.361Z,29.38
2023-04-09T04:06:50.826Z,33.55
2023-04-09T04:09:17.879Z,33.58
2023-04-09T04:11:44.856Z,30.55
2023-04-09T04:14:11.867Z,28.77
2023-04-09T04:16:40.712Z,26.75
2023-04-09T04:19:07.938Z,25.17
2023-04-09T04:21:34.933Z,29.33
2023-04-09T04:24:01.977Z,29.95
2023-04-09T04:26:29.137Z,28.52
2023-04-09T04:28:56.351Z,29.45
2023-04-09T04:31:23.578Z,27.35
2023-04-09T04:33:50.657Z,30.73
2023-04-09T04:36:17.722Z,26.05
2023-04-09T04:38:44.768Z,30.30
2023-04-09T04:41:12.056Z,29.05
2023-04-09T04:43:41.305Z,29.48
2023-04-09T04:46:08.326Z,28.75
2023-04-09T04:48:35.586Z,28.55
2023-04-09T04:51:03.024Z,30.80
2023-04-09T04:53:30.177Z,31.90
2023-04-09T04:55:57.269Z,32.22
2023-04-09T04:58:25.085Z,33.83
2023-04-09T05:00:52.145Z,27.85
2023-04-09T05:03:19.329Z,35.25
2023-04-09T05:05:46.453Z,30.33
2023-04-09T05:08:13.493Z,31.48
2023-04-09T05:10:43.937Z,28.80
2023-04-09T05:13:11.143Z,28.90
2023-04-09T05:15:39.252Z,25.90
2023-04-09T05:18:06.790Z,28.88
2023-04-09T05:20:34.206Z,26.60
2023-04-09T05:23:01.306Z,26.65
2023-04-09T05:25:28.294Z,29.20
2023-04-09T05:27:55.873Z,27.17
2023-04-09T05:30:22.976Z,29.42
2023-04-09T05:32:50.115Z,29.50
2023-04-09T05:35:17.217Z,31.40
2023-04-09T05:37:44.244Z,36.22
2023-04-09T05:40:11.602Z,29.55
2023-04-09T05:42:38.606Z,35.10
2023-04-09T05:45:05.950Z,26.50
2023-04-09T05:47:32.991Z,31.10
2023-04-09T05:50:00.045Z,26.35
2023-04-09T05:52:27.235Z,26.25
2023-04-09T05:54:54.238Z,25.27
2023-04-09T05:57:21.538Z,26.58
2023-04-09T05:59:48.641Z,27.42
2023-04-09T06:02:15.986Z,32.78
2023-04-09T06:04:43.191Z,25.17
2023-04-09T06:07:10.693Z,27.95
2023-04-09T06:09:38.177Z,27.10
2023-04-09T06:12:05.165Z,23.35
2023-04-09T06:14:33.151Z,24.42
2023-04-09T06:17:00.485Z,28.98
2023-04-09T06:19:27.593Z,24.45
2023-04-09T06:21:54.611Z,26.30
2023-04-09T06:24:21.584Z,30.48
2023-04-09T06:26:48.740Z,25.98
2023-04-09T06:29:15.814Z,31.38
2023-04-09T06:31:43.204Z,29.27
2023-04-09T06:34:11.062Z,28.27
2023-04-09T06:36:40.186Z,30.10
2023-04-09T06:39:07.420Z,29.33
2023-04-09T06:41:34.507Z,28.98
2023-04-09T06:44:01.618Z,26.95
2023-04-09T06:46:28.929Z,26.95
2023-04-09T06:48:56.055Z,26.67
2023-04-09T06:51:23.037Z,26.95
2023-04-09T06:53:50.356Z,28.55
2023-04-09T06:56:17.635Z,27.80
2023-04-09T06:58:44.662Z,25.08
2023-04-09T07:01:12.638Z,27.15
2023-04-09T07:03:39.752Z,28.60
2023-04-09T07:06:06.809Z,31.40
2023-04-09T07:08:33.890Z,28.48
2023-04-09T07:11:00.892Z,29.83
2023-04-09T07:15:55.854Z,26.45
2023-04-09T07:18:22.850Z,28.48
2023-04-09T07:20:49.881Z,31.58
2023-04-09T07:23:17.260Z,31.80
2023-04-09T07:25:45.344Z,28.60
2023-04-09T07:28:12.591Z,32.42
2023-04-09T07:30:40.264Z,30.85
2023-04-09T07:33:07.342Z,32.47
2023-04-09T07:35:34.766Z,31.80
2023-04-09T07:38:01.907Z,33.20
2023-04-09T07:40:28.992Z,32.38
2023-04-09T07:42:56.089Z,30.23
2023-04-09T07:45:23.250Z,34.22
2023-04-09T07:47:50.368Z,32.58
2023-04-09T07:50:17.672Z,30.15
2023-04-09T07:52:44.799Z,33.08
2023-04-09T07:55:11.824Z,32.78
2023-04-09T07:57:38.957Z,31.52
2023-04-09T08:00:06.727Z,28.92
2023-04-09T08:02:33.836Z,29.77
2023-04-09T08:05:01.026Z,27.75
2023-04-09T08:07:28.141Z,25.95
2023-04-09T08:09:55.438Z,25.63
2023-04-09T08:12:22.492Z,27.15
2023-04-09T08:14:49.591Z,26.30
2023-04-09T08:17:16.624Z,26.85
2023-04-09T08:19:43.678Z,23.98
2023-04-09T08:22:11.295Z,26.52
2023-04-09T08:24:40.132Z,25.80
2023-04-09T08:27:07.282Z,24.63
2023-04-09T08:29:34.771Z,24.42
2023-04-09T08:32:02.162Z,25.52
2023-04-09T08:34:29.392Z,26.15
2023-04-09T08:36:56.952Z,22.55
2023-04-09T08:39:23.980Z,19.58
2023-04-09T08:41:51.053Z,21.10
2023-04-09T08:44:18.049Z,22.10
2023-04-09T08:46:45.326Z,20.83
2023-04-09T08:49:13.057Z,22.65
2023-04-09T08:51:40.376Z,22.35
2023-04-09T08:54:07.499Z,23.58
2023-04-09T08:56:34.548Z,21.75
2023-04-09T08:59:01.552Z,21.20
2023-04-09T09:01:29.686Z,20.35
2023-04-09T09:04:00.856Z,20.48
2023-04-09T09:06:33.142Z,19.10
2023-04-09T09:09:01.376Z,18.90
2023-04-09T09:11:30.214Z,18.33
2023-04-09T09:14:04.774Z,20.17
2023-04-09T09:16:34.506Z,18.40
2023-04-09T09:19:02.199Z,19.70
2023-04-09T09:21:30.077Z,23.42
2023-04-09T09:23:57.370Z,19.30
2023-04-09T09:26:25.780Z,18.05
2023-04-09T09:28:53.034Z,17.33
2023-04-09T09:31:20.957Z,17.30
2023-04-09T09:33:48.293Z,18.35
2023-04-09T09:36:35.975Z,17.90
2023-04-09T09:39:10.238Z,15.77
2023-04-09T09:41:37.749Z,16.42
2023-04-09T09:44:07.062Z,17.42
2023-04-09T09:46:35.334Z,17.58
2023-04-09T09:49:02.392Z,17.60
2023-04-09T09:51:29.406Z,20.23
2023-04-09T09:53:57.130Z,19.05
2023-04-09T09:56:26.369Z,16.30
2023-04-09T09:59:04.204Z,16.77
2023-04-09T10:01:31.380Z,16.75
2023-04-09T10:03:59.636Z,17.83
2023-04-09T10:06:27.572Z,15.70
2023-04-09T10:08:58.187Z,14.85
2023-04-09T10:11:25.479Z,15.55
2023-04-09T10:14:01.684Z,16.80
2023-04-09T10:16:28.979Z,14.65
2023-04-09T10:18:56.549Z,15.88
2023-04-09T10:21:23.679Z,16.92
2023-04-09T10:23:50.990Z,15.95
2023-04-09T10:26:18.784Z,17.33
2023-04-09T10:29:08.408Z,18.83
2023-04-09T10:31:48.447Z,24.48
2023-04-09T10:34:19.374Z,19.33
2023-04-09T10:36:47.429Z,19.27
2023-04-09T10:39:14.443Z,18.08
2023-04-09T10:41:41.726Z,18.88
2023-04-09T10:44:20.495Z,16.67
2023-04-09T10:46:47.843Z,18.65
2023-04-09T10:49:22.214Z,19.38
2023-04-09T10:52:12.109Z,18.67
2023-04-09T10:54:46.316Z,18.65
2023-04-09T10:57:23.007Z,17.73
2023-04-09T10:59:53.735Z,18.60
2023-04-09T11:02:39.666Z,18.27
2023-04-09T11:05:07.372Z,18.02
2023-04-09T11:07:35.801Z,17.83
2023-04-09T11:10:03.001Z,17.85
2023-04-09T11:12:30.034Z,18.00
2023-04-09T11:14:57.003Z,16.70
2023-04-09T11:17:24.215Z,18.08
2023-04-09T11:19:51.309Z,16.58
2023-04-09T11:22:18.485Z,17.95
2023-04-09T11:24:50.905Z,16.50
2023-04-09T11:27:19.546Z,16.15
2023-04-09T11:29:46.605Z,16.98
2023-04-09T11:32:13.972Z,20.63
2023-04-09T11:34:41.426Z,18.33
2023-04-09T11:37:09.381Z,17.63
2023-04-09T11:39:39.540Z,14.57
2023-04-09T11:42:06.760Z,13.80
2023-04-09T11:44:34.127Z,15.95
2023-04-09T11:47:01.488Z,15.55
2023-04-09T11:49:28.606Z,14.05
2023-04-09T11:51:58.002Z,14.75
2023-04-09T11:54:25.621Z,14.88
2023-04-09T11:56:56.127Z,14.50
2023-04-09T12:01:51.201Z,11.65
2023-04-09T12:04:21.663Z,10.70
2023-04-09T12:09:16.351Z,10.93
2023-04-09T12:11:43.946Z,10.65
2023-04-09T12:14:14.403Z,10.05
2023-04-09T12:16:43.888Z,12.80
2023-04-09T12:19:11.936Z,10.73
2023-04-09T12:21:56.902Z,10.02
2023-04-09T12:24:24.452Z,10.43
2023-04-09T12:26:51.636Z,11.18
2023-04-09T12:29:19.676Z,11.93
2023-04-09T12:31:46.743Z,11.00
2023-04-09T12:34:13.999Z,10.77
2023-04-09T12:36:44.243Z,11.45
2023-04-09T12:39:11.395Z,9.77
2023-04-09T12:41:38.487Z,9.32
2023-04-09T12:44:07.306Z,10.52
2023-04-09T12:46:34.380Z,11.80
2023-04-09T12:49:01.512Z,10.90
2023-04-09T12:51:28.655Z,10.82
2023-04-09T12:53:56.053Z,11.18
2023-04-09T12:56:23.637Z,10.63
2023-04-09T12:58:51.672Z,9.27
2023-04-09T13:01:19.017Z,9.88
2023-04-09T13:03:46.252Z,8.85
2023-04-09T13:06:13.668Z,9.70
2023-04-09T13:08:41.112Z,10.32
2023-04-09T13:11:08.157Z,8.80
2023-04-09T13:13:35.270Z,8.82
2023-04-09T13:16:02.622Z,8.00
2023-04-09T13:18:29.714Z,19.52
2023-04-09T13:20:56.840Z,6.88
2023-04-09T13:23:23.931Z,10.05
2023-04-09T13:25:51.028Z,9.57
2023-04-09T13:28:18.067Z,9.13
2023-04-09T13:30:45.139Z,10.00
2023-04-09T13:33:12.259Z,8.50
2023-04-09T13:35:39.389Z,8.90
2023-04-09T13:38:06.466Z,7.95
2023-04-09T13:40:33.587Z,8.40
2023-04-09T13:43:00.646Z,11.73
2023-04-09T13:45:27.886Z,10.77
2023-04-09T13:47:55.113Z,9.65
2023-04-09T13:50:22.377Z,9.73
2023-04-09T13:52:49.707Z,9.93
2023-04-09T13:55:16.948Z,8.50
2023-04-09T13:57:44.049Z,8.65
2023-04-09T14:00:11.398Z,8.25
2023-04-09T14:02:38.491Z,7.65
2023-04-09T14:05:06.033Z,9.07
2023-04-09T14:07:33.220Z,11.50
2023-04-09T14:10:00.316Z,8.00
2023-04-09T14:12:27.455Z,7.57
2023-04-09T14:14:54.503Z,8.00
2023-04-09T14:17:21.647Z,7.20
2023-04-09T14:19:48.784Z,10.27
2023-04-09T14:22:15.829Z,8.18
2023-04-09T14:24:42.915Z,7.97
2023-04-09T14:27:10.221Z,7.60
2023-04-09T14:29:37.292Z,7.53
2023-04-09T14:32:04.399Z,7.05
2023-04-09T14:34:31.478Z,7.25
2023-04-09T14:36:58.611Z,8.10
2023-04-09T14:39:25.851Z,6.68
2023-04-09T14:41:54.417Z,6.47
2023-04-09T14:44:21.591Z,7.00
2023-04-09T14:46:48.809Z,6.65
2023-04-09T14:49:15.949Z,9.95
2023-04-09T14:51:43.048Z,8.23
2023-04-09T14:54:10.208Z,6.00
2023-04-09T14:56:37.240Z,6.93
2023-04-09T14:59:04.312Z,6.85
2023-04-09T15:01:33.174Z,7.78
2023-04-09T15:04:00.887Z,6.72
2023-04-09T15:06:28.071Z,6.55
2023-04-09T15:08:55.221Z,6.40
2023-04-09T15:11:23.034Z,5.82
2023-04-09T15:13:50.653Z,6.38
2023-04-09T15:16:21.600Z,7.03
2023-04-09T15:18:51.867Z,7.22
2023-04-09T15:21:19.426Z,7.65
2023-04-09T15:23:46.557Z,5.32
2023-04-09T15:26:13.641Z,6.57
2023-04-09T15:28:40.668Z,5.93
2023-04-09T15:31:07.922Z,6.32
2023-04-09T15:33:35.412Z,8.18
2023-04-09T15:36:02.544Z,6.43
2023-04-09T15:38:29.702Z,5.88
2023-04-09T15:40:57.480Z,4.93
2023-04-09T15:43:24.664Z,6.30
2023-04-09T15:45:51.897Z,5.97
2023-04-09T15:48:19.323Z,5.95
2023-04-09T15:50:46.727Z,6.72
2023-04-09T15:53:14.930Z,6.00
2023-04-09T15:55:42.103Z,6.53
2023-04-09T15:58:09.168Z,6.28
2023-04-09T16:00:36.451Z,6.35
2023-04-09T16:03:03.701Z,5.95
2023-04-09T16:05:30.769Z,8.43
2023-04-09T16:07:59.706Z,6.47
2023-04-09T16:10:27.058Z,6.53
2023-04-09T16:12:54.128Z,7.00
2023-04-09T16:15:21.725Z,6.82
2023-04-09T16:17:48.812Z,6.55
2023-04-09T16:20:16.102Z,6.25
2023-04-09T16:22:43.205Z,6.57
2023-04-09T16:25:10.601Z,6.75
2023-04-09T16:27:37.689Z,7.35
2023-04-09T16:30:04.861Z,7.60
2023-04-09T16:32:31.962Z,5.97
2023-04-09T16:35:00.674Z,7.82
2023-04-09T16:37:29.209Z,7.80
2023-04-09T16:39:57.159Z,7.65
2023-04-09T16:42:26.762Z,6.03
2023-04-09T16:44:54.304Z,7.28
2023-04-09T16:47:21.422Z,7.65
2023-04-09T16:49:48.469Z,6.72
2023-04-09T16:52:15.812Z,7.43
2023-04-09T16:54:42.886Z,7.60
2023-04-09T16:57:10.320Z,7.18
2023-04-09T16:59:37.549Z,8.93
2023-04-09T17:02:05.352Z,6.38
2023-04-09T17:04:34.509Z,8.18
2023-04-09T17:07:01.717Z,7.50
2023-04-09T17:09:28.843Z,11.18
2023-04-09T17:11:56.711Z,8.95
2023-04-09T17:14:23.798Z,10.00
2023-04-09T17:16:52.889Z,7.38
2023-04-09T17:19:19.978Z,7.93
2023-04-09T17:21:47.289Z,8.13
2023-04-09T17:24:14.390Z,7.43
2023-04-09T17:26:41.593Z,14.13
2023-04-09T17:29:08.719Z,10.45
2023-04-09T17:31:35.878Z,8.15
2023-04-09T17:34:03.465Z,9.50
2023-04-09T17:36:31.521Z,9.60
2023-04-09T17:38:58.561Z,10.57
2023-04-09T17:41:26.073Z,10.48
2023-04-09T17:43:53.185Z,8.18
2023-04-09T17:46:20.311Z,8.40
2023-04-09T17:48:47.383Z,7.65
2023-04-09T17:51:19.209Z,8.60
2023-04-09T17:53:47.299Z,7.47
2023-04-09T17:56:17.588Z,7.63
2023-04-09T17:58:45.034Z,8.20
2023-04-09T18:01:15.106Z,9.55
2023-04-09T18:03:43.045Z,9.38
2023-04-09T18:06:10.839Z,13.52
2023-04-09T18:08:38.173Z,24.75
2023-04-09T18:11:12.884Z,15.68
2023-04-09T18:13:40.518Z,18.65
2023-04-09T18:16:11.921Z,14.63
2023-04-09T18:18:39.206Z,20.27
2023-04-09T18:21:06.508Z,18.92
2023-04-09T18:23:33.753Z,16.15
2023-04-09T18:26:00.865Z,22.42
2023-04-09T18:28:28.146Z,15.68
2023-04-09T18:30:55.271Z,15.90
2023-04-09T18:33:22.371Z,13.82
2023-04-09T18:35:49.406Z,18.02
2023-04-09T18:38:17.481Z,15.98
2023-04-09T18:40:44.773Z,19.63
2023-04-09T18:43:12.379Z,17.05
2023-04-09T18:45:39.701Z,20.02
2023-04-09T18:48:08.056Z,18.50
2023-04-09T18:50:35.464Z,17.95
2023-04-09T18:53:03.655Z,19.55
2023-04-09T18:55:30.991Z,16.85
2023-04-09T18:57:58.418Z,15.60
2023-04-09T19:00:25.520Z,19.55
2023-04-09T19:02:52.853Z,20.08
2023-04-09T19:05:20.188Z,21.40
2023-04-09T19:07:47.273Z,18.20
2023-04-09T19:10:14.465Z,20.15
2023-04-09T19:12:48.359Z,20.15
2023-04-09T19:15:16.041Z,20.75
2023-04-09T19:17:43.435Z,19.58
2023-04-09T19:20:10.820Z,21.15
2023-04-09T19:22:37.961Z,21.50
2023-04-09T19:25:07.335Z,24.45
2023-04-09T19:27:34.470Z,31.40
2023-04-09T19:30:01.604Z,22.52
2023-04-09T19:32:28.922Z,27.13
2023-04-09T19:34:56.248Z,23.98
2023-04-09T19:37:27.434Z,28.27
2023-04-09T19:39:54.976Z,30.90
2023-04-09T19:42:22.145Z,29.58
2023-04-09T19:44:49.274Z,25.25
2023-04-09T19:47:16.398Z,22.70
2023-04-09T19:49:43.604Z,24.05
2023-04-09T19:52:10.761Z,20.38
2023-04-09T19:54:37.953Z,22.48
2023-04-09T19:57:05.490Z,21.48
2023-04-09T19:59:36.218Z,21.73
2023-04-09T20:02:03.548Z,18.45
2023-04-09T20:04:30.928Z,21.05
2023-04-09T20:06:57.975Z,18.60
2023-04-09T20:09:27.537Z,21.52
2023-04-09T20:11:54.781Z,17.25
2023-04-09T20:14:22.062Z,21.80
2023-04-09T20:16:49.149Z,28.00
2023-04-09T20:19:16.471Z,22.77
2023-04-09T20:21:43.702Z,20.65
2023-04-09T20:24:11.006Z,19.85
2023-04-09T20:26:38.022Z,17.73
2023-04-09T20:29:05.287Z,15.75
2023-04-09T20:31:34.978Z,20.52
2023-04-09T20:34:05.398Z,19.77
2023-04-09T20:36:32.468Z,23.38
2023-04-09T20:38:59.488Z,24.20
2023-04-09T20:41:26.566Z,29.10
2023-04-09T20:43:53.727Z,24.75
2023-04-09T20:46:20.864Z,28.95
2023-04-09T20:48:47.937Z,26.25
2023-04-09T20:51:15.699Z,28.40
2023-04-09T20:53:45.381Z,26.15
2023-04-09T20:56:12.404Z,23.43
2023-04-09T20:58:39.521Z,27.70
2023-04-09T21:01:07.397Z,53.28
2023-04-09T21:03:35.832Z,30.98
2023-04-09T21:06:03.227Z,30.85
2023-04-09T21:08:30.314Z,27.70
2023-04-09T21:10:57.390Z,27.20
2023-04-09T21:13:24.612Z,27.48
2023-04-09T21:15:51.653Z,25.73
2023-04-09T21:18:18.685Z,27.80
2023-04-09T21:20:49.151Z,36.08
2023-04-09T21:23:16.538Z,37.00
2023-04-09T21:25:43.634Z,36.53
2023-04-09T21:28:11.552Z,34.80
2023-04-09T21:30:38.664Z,34.35
2023-04-09T21:33:06.665Z,33.60
2023-04-09T21:35:34.080Z,29.73
2023-04-09T21:38:02.799Z,30.27
2023-04-09T21:40:30.688Z,31.10
2023-04-09T21:42:57.961Z,32.15
2023-04-09T21:45:25.048Z,30.95
2023-04-09T21:47:52.548Z,24.52
2023-04-09T21:50:19.824Z,26.95
2023-04-09T21:52:47.322Z,25.45
2023-04-09T21:55:14.386Z,28.08
2023-04-09T21:57:41.572Z,31.38
2023-04-09T22:00:10.837Z,29.23
2023-04-09T22:02:39.229Z,30.42
2023-04-09T22:05:06.702Z,31.75
2023-04-09T22:07:33.888Z,88.55
2023-04-09T22:10:01.118Z,33.20
2023-04-09T22:12:28.169Z,26.27
2023-04-09T22:14:56.193Z,22.27
2023-04-09T22:17:23.250Z,22.50
2023-04-09T22:19:51.030Z,24.08
2023-04-09T22:22:18.132Z,15.63
2023-04-09T22:24:45.269Z,17.73
2023-04-09T22:27:12.925Z,16.33
2023-04-09T22:29:40.016Z,17.15
2023-04-09T22:32:07.284Z,15.23
2023-04-09T22:34:34.309Z,13.18
2023-04-09T22:37:01.946Z,14.25
2023-04-09T22:39:29.288Z,12.05
2023-04-09T22:41:56.344Z,15.27
2023-04-09T22:44:23.878Z,11.65
2023-04-09T22:46:51.212Z,12.18
2023-04-09T22:49:18.345Z,16.05
2023-04-09T22:51:46.313Z,9.90
2023-04-09T22:54:13.406Z,10.18
2023-04-09T22:56:40.411Z,9.43
2023-04-09T22:59:07.520Z,10.82
2023-04-09T23:01:34.715Z,11.02
2023-04-09T23:04:01.886Z,15.82
2023-04-09T23:06:30.873Z,11.65
2023-04-09T23:08:59.771Z,11.45
2023-04-09T23:11:27.349Z,10.82
2023-04-09T23:13:54.496Z,10.85
2023-04-09T23:16:21.954Z,10.45
2023-04-09T23:18:49.106Z,14.48
2023-04-09T23:21:16.282Z,11.82
2023-04-09T23:23:43.483Z,12.45
2023-04-09T23:26:11.034Z,13.32
2023-04-09T23:28:38.163Z,14.85
2023-04-09T23:31:05.353Z,18.35
2023-04-09T23:33:32.654Z,18.25
2023-04-09T23:35:59.816Z,18.15
2023-04-09T23:38:26.943Z,14.23
2023-04-09T23:40:54.038Z,15.60
2023-04-09T23:43:21.125Z,14.80
2023-04-09T23:45:50.364Z,14.45
2023-04-09T23:48:17.450Z,14.68
2023-04-09T23:50:44.625Z,12.57
2023-04-09T23:53:11.714Z,13.45
2023-04-09T23:55:41.000Z,15.90
2023-04-09T23:58:08.384Z,14.98
